sensor_id;sensor_type;location;lat;lon;timestamp;pressure;altitude;pressure_sealevel;temperature;humidity
49915;BME280;35806;47.958;13.158;2022-09-09T00:00:49;94580.66;;;14.21;56.18
49915;BME280;35806;47.958;13.158;2022-09-09T00:03:24;94581.85;;;14.07;56.34
49915;BME280;35806;47.958;13.158;2022-09-09T00:05:59;94576.63;;;15.02;54.71
49915;BME280;35806;47.958;13.158;2022-09-09T00:08:40;94570.44;;;14.91;54.53
49915;BME280;35806;47.958;13.158;2022-09-09T00:11:13;94565.12;;;13.82;56.68
49915;BME280;35806;47.958;13.158;2022-09-09T00:13:48;94563.14;;;14.41;56.00
49915;BME280;35806;47.958;13.158;2022-09-09T00:16:19;94557.21;;;14.15;55.96
49915;BME280;35806;47.958;13.158;2022-09-09T00:18:55;94559.01;;;15.78;54.68
49915;BME280;35806;47.958;13.158;2022-09-09T00:21:30;94561.44;;;15.31;54.79
49915;BME280;35806;47.958;13.158;2022-09-09T00:24:10;94558.14;;;15.87;54.60
49915;BME280;35806;47.958;13.158;2022-09-09T00:26:41;94550.00;;;16.11;54.56
49915;BME280;35806;47.958;13.158;2022-09-09T00:29:26;94548.07;;;14.76;55.18
49915;BME280;35806;47.958;13.158;2022-09-09T00:31:57;94551.05;;;14.08;56.71
49915;BME280;35806;47.958;13.158;2022-09-09T00:34:29;94547.83;;;13.58;57.31
49915;BME280;35806;47.958;13.158;2022-09-09T00:36:57;94544.44;;;14.31;55.26
49915;BME280;35806;47.958;13.158;2022-09-09T00:39:32;94537.90;;;15.43;53.79
49915;BME280;35806;47.958;13.158;2022-09-09T00:42:12;94537.98;;;15.73;52.94
49915;BME280;35806;47.958;13.158;2022-09-09T00:44:52;94537.82;;;16.39;52.73
49915;BME280;35806;47.958;13.158;2022-09-09T00:47:39;94540.74;;;16.21;51.77
49915;BME280;35806;47.958;13.158;2022-09-09T00:50:19;94542.85;;;15.64;52.68
49915;BME280;35806;47.958;13.158;2022-09-09T00:52:55;94544.65;;;16.11;52.49
49915;BME280;35806;47.958;13.158;2022-09-09T00:55:34;94540.67;;;15.43;52.79
49915;BME280;35806;47.958;13.158;2022-09-09T00:58:08;94537.59;;;15.78;52.41
49915;BME280;35806;47.958;13.158;2022-09-09T01:16:00;94547.86;;;14.37;55.51
49915;BME280;35806;47.958;13.158;2022-09-09T01:18:30;94546.46;;;15.40;54.09
49915;BME280;35806;47.958;13.158;2022-09-09T01:21:06;94544.31;;;15.01;54.50
49915;BME280;35806;47.958;13.158;2022-09-09T01:24:04;94541.84;;;13.91;55.85
49915;BME280;35806;47.958;13.158;2022-09-09T01:26:37;94538.95;;;15.49;53.49
49915;BME280;35806;47.958;13.158;2022-09-09T01:29:15;94535.52;;;15.29;53.20
49915;BME280;35806;47.958;13.158;2022-09-09T01:31:52;94541.86;;;14.61;54.30
49915;BME280;35806;47.958;13.158;2022-09-09T01:34:21;94546.07;;;13.62;56.27
49915;BME280;35806;47.958;13.158;2022-09-09T01:36:55;94541.11;;;15.16;53.58
49915;BME280;35806;47.958;13.158;2022-09-09T01:39:25;94537.09;;;16.33;53.19
49915;BME280;35806;47.958;13.158;2022-09-09T01:41:53;94540.68;;;15.87;52.97
49915;BME280;35806;47.958;13.158;2022-09-09T01:44:23;94539.07;;;15.49;52.99
49915;BME280;35806;47.958;13.158;2022-09-09T01:46:51;94537.01;;;15.57;52.93
49915;BME280;35806;47.958;13.158;2022-09-09T01:49:19;94539.55;;;13.37;56.95
49915;BME280;35806;47.958;13.158;2022-09-09T01:51:49;94540.63;;;13.89;57.25
49915;BME280;35806;47.958;13.158;2022-09-09T01:54:19;94538.13;;;13.80;57.32
49915;BME280;35806;47.958;13.158;2022-09-09T01:56:54;94538.27;;;13.78;57.15
49915;BME280;35806;47.958;13.158;2022-09-09T01:59:31;94529.92;;;14.69;55.83
49915;BME280;35806;47.958;13.158;2022-09-09T02:02:10;94537.73;;;14.42;56.17
49915;BME280;35806;47.958;13.158;2022-09-09T02:04:41;94535.42;;;14.55;55.70
49915;BME280;35806;47.958;13.158;2022-09-09T02:07:19;94534.34;;;14.57;55.52
49915;BME280;35806;47.958;13.158;2022-09-09T02:09:58;94531.00;;;15.03;54.65
49915;BME280;35806;47.958;13.158;2022-09-09T02:12:29;94530.47;;;16.13;54.01
49915;BME280;35806;47.958;13.158;2022-09-09T02:15:03;94528.83;;;15.39;54.40
49915;BME280;35806;47.958;13.158;2022-09-09T02:17:34;94529.07;;;14.64;54.87
49915;BME280;35806;47.958;13.158;2022-09-09T02:20:06;94534.03;;;13.79;56.51
49915;BME280;35806;47.958;13.158;2022-09-09T02:22:35;94534.37;;;15.81;53.91
49915;BME280;35806;47.958;13.158;2022-09-09T02:25:08;94538.57;;;16.20;53.85
49915;BME280;35806;47.958;13.158;2022-09-09T02:27:37;94544.99;;;15.42;54.17
49915;BME280;35806;47.958;13.158;2022-09-09T02:30:05;94545.66;;;16.11;53.64
49915;BME280;35806;47.958;13.158;2022-09-09T02:32:34;94545.31;;;16.49;53.84
49915;BME280;35806;47.958;13.158;2022-09-09T02:35:06;94549.93;;;14.03;55.78
49915;BME280;35806;47.958;13.158;2022-09-09T02:37:37;94547.73;;;14.60;55.82
49915;BME280;35806;47.958;13.158;2022-09-09T02:40:06;94548.32;;;15.06;54.14
49915;BME280;35806;47.958;13.158;2022-09-09T02:42:38;94550.47;;;16.05;53.63
49915;BME280;35806;47.958;13.158;2022-09-09T02:45:08;94553.13;;;15.68;53.54
49915;BME280;35806;47.958;13.158;2022-09-09T02:47:37;94554.56;;;15.61;53.22
49915;BME280;35806;47.958;13.158;2022-09-09T02:50:12;94556.68;;;15.81;52.79
49915;BME280;35806;47.958;13.158;2022-09-09T02:52:47;94556.16;;;16.33;52.52
49915;BME280;35806;47.958;13.158;2022-09-09T02:55:21;94562.13;;;15.82;52.81
49915;BME280;35806;47.958;13.158;2022-09-09T02:57:52;94558.53;;;16.15;53.09
49915;BME280;35806;47.958;13.158;2022-09-09T03:00:25;94556.57;;;15.42;53.86
49915;BME280;35806;47.958;13.158;2022-09-09T03:02:53;94557.49;;;15.65;52.56
49915;BME280;35806;47.958;13.158;2022-09-09T03:05:21;94555.26;;;15.55;52.79
49915;BME280;35806;47.958;13.158;2022-09-09T03:07:48;94553.48;;;15.72;52.47
49915;BME280;35806;47.958;13.158;2022-09-09T03:10:16;94554.29;;;15.62;52.71
49915;BME280;35806;47.958;13.158;2022-09-09T03:12:44;94548.72;;;15.65;52.97
49915;BME280;35806;47.958;13.158;2022-09-09T03:15:11;94541.44;;;16.09;52.70
49915;BME280;35806;47.958;13.158;2022-09-09T03:17:38;94541.07;;;16.01;52.94
49915;BME280;35806;47.958;13.158;2022-09-09T03:20:07;94540.23;;;15.25;52.27
49915;BME280;35806;47.958;13.158;2022-09-09T03:22:34;94539.85;;;15.48;52.17
49915;BME280;35806;47.958;13.158;2022-09-09T03:25:01;94535.27;;;16.17;52.91
49915;BME280;35806;47.958;13.158;2022-09-09T03:27:29;94533.38;;;15.20;52.76
49915;BME280;35806;47.958;13.158;2022-09-09T03:29:56;94529.42;;;15.84;52.91
49915;BME280;35806;47.958;13.158;2022-09-09T03:32:24;94524.88;;;16.18;52.48
49915;BME280;35806;47.958;13.158;2022-09-09T03:34:52;94530.99;;;16.33;52.39
49915;BME280;35806;47.958;13.158;2022-09-09T03:37:19;94540.10;;;16.15;52.32
49915;BME280;35806;47.958;13.158;2022-09-09T03:39:47;94545.98;;;15.87;51.68
49915;BME280;35806;47.958;13.158;2022-09-09T03:42:14;94543.76;;;15.98;52.23
49915;BME280;35806;47.958;13.158;2022-09-09T03:44:41;94539.27;;;15.11;52.13
49915;BME280;35806;47.958;13.158;2022-09-09T03:47:09;94538.31;;;15.18;52.08
49915;BME280;35806;47.958;13.158;2022-09-09T03:49:35;94534.71;;;14.51;52.89
49915;BME280;35806;47.958;13.158;2022-09-09T03:52:03;94530.45;;;13.96;53.71
49915;BME280;35806;47.958;13.158;2022-09-09T03:54:31;94534.11;;;15.14;52.78
49915;BME280;35806;47.958;13.158;2022-09-09T03:56:58;94532.20;;;15.49;52.41
49915;BME280;35806;47.958;13.158;2022-09-09T03:59:26;94527.23;;;14.49;53.55
49915;BME280;35806;47.958;13.158;2022-09-09T04:01:53;94524.16;;;14.11;53.82
49915;BME280;35806;47.958;13.158;2022-09-09T04:04:21;94523.64;;;13.63;56.15
49915;BME280;35806;47.958;13.158;2022-09-09T04:06:48;94520.27;;;14.77;54.58
49915;BME280;35806;47.958;13.158;2022-09-09T04:09:16;94516.82;;;13.08;56.65
49915;BME280;35806;47.958;13.158;2022-09-09T04:11:43;94517.88;;;14.10;55.86
49915;BME280;35806;47.958;13.158;2022-09-09T04:14:11;94511.66;;;15.01;53.74
49915;BME280;35806;47.958;13.158;2022-09-09T04:16:38;94518.19;;;15.87;53.56
49915;BME280;35806;47.958;13.158;2022-09-09T04:19:06;94521.48;;;15.77;53.69
49915;BME280;35806;47.958;13.158;2022-09-09T04:21:33;94524.85;;;15.93;53.00
49915;BME280;35806;47.958;13.158;2022-09-09T04:24:01;94523.68;;;16.10;52.88
49915;BME280;35806;47.958;13.158;2022-09-09T04:26:29;94527.14;;;16.38;52.85
49915;BME280;35806;47.958;13.158;2022-09-09T04:28:56;94530.66;;;15.48;52.36
49915;BME280;35806;47.958;13.158;2022-09-09T04:31:24;94527.59;;;16.10;51.95
49915;BME280;35806;47.958;13.158;2022-09-09T04:33:51;94534.29;;;15.11;52.44
49915;BME280;35806;47.958;13.158;2022-09-09T04:36:19;94534.07;;;14.10;54.47
49915;BME280;35806;47.958;13.158;2022-09-09T04:38:46;94534.29;;;14.48;54.44
49915;BME280;35806;47.958;13.158;2022-09-09T04:41:14;94528.16;;;14.25;55.11
49915;BME280;35806;47.958;13.158;2022-09-09T04:43:41;94523.22;;;15.34;53.27
49915;BME280;35806;47.958;13.158;2022-09-09T04:46:09;94516.37;;;15.69;52.68
49915;BME280;35806;47.958;13.158;2022-09-09T04:48:36;94511.12;;;16.22;52.38
49915;BME280;35806;47.958;13.158;2022-09-09T04:51:05;94503.70;;;16.26;52.74
49915;BME280;35806;47.958;13.158;2022-09-09T04:53:33;94497.53;;;16.53;53.16
49915;BME280;35806;47.958;13.158;2022-09-09T04:56:02;94496.38;;;17.02;52.42
49915;BME280;35806;47.958;13.158;2022-09-09T04:58:30;94501.85;;;16.31;52.62
49915;BME280;35806;47.958;13.158;2022-09-09T05:01:04;94506.05;;;16.44;53.03
49915;BME280;35806;47.958;13.158;2022-09-09T05:03:31;94504.93;;;16.69;52.64
49915;BME280;35806;47.958;13.158;2022-09-09T05:06:03;94503.52;;;17.06;52.78
49915;BME280;35806;47.958;13.158;2022-09-09T05:08:31;94506.58;;;16.74;52.06
49915;BME280;35806;47.958;13.158;2022-09-09T05:10:59;94512.08;;;17.11;51.70
49915;BME280;35806;47.958;13.158;2022-09-09T05:13:26;94510.57;;;16.85;51.12
49915;BME280;35806;47.958;13.158;2022-09-09T05:15:58;94514.06;;;16.59;51.32
49915;BME280;35806;47.958;13.158;2022-09-09T05:18:25;94517.33;;;15.87;50.71
49915;BME280;35806;47.958;13.158;2022-09-09T05:20:52;94516.79;;;16.60;50.98
49915;BME280;35806;47.958;13.158;2022-09-09T05:23:25;94518.42;;;16.71;51.68
49915;BME280;35806;47.958;13.158;2022-09-09T05:25:55;94525.84;;;16.92;51.90
49915;BME280;35806;47.958;13.158;2022-09-09T05:28:23;94522.84;;;16.86;51.73
49915;BME280;35806;47.958;13.158;2022-09-09T05:30:56;94524.95;;;16.68;51.77
49915;BME280;35806;47.958;13.158;2022-09-09T05:33:24;94521.52;;;16.69;51.51
49915;BME280;35806;47.958;13.158;2022-09-09T05:35:56;94524.26;;;15.11;53.42
49915;BME280;35806;47.958;13.158;2022-09-09T05:38:44;94516.38;;;16.25;51.52
49915;BME280;35806;47.958;13.158;2022-09-09T05:41:12;94516.70;;;15.57;52.46
49915;BME280;35806;47.958;13.158;2022-09-09T05:43:40;94508.61;;;14.77;53.46
49915;BME280;35806;47.958;13.158;2022-09-09T05:46:11;94513.65;;;15.40;51.60
49915;BME280;35806;47.958;13.158;2022-09-09T05:48:58;94508.80;;;16.35;51.19
49915;BME280;35806;47.958;13.158;2022-09-09T05:51:27;94507.87;;;16.37;51.20
49915;BME280;35806;47.958;13.158;2022-09-09T05:53:55;94510.29;;;16.82;52.13
49915;BME280;35806;47.958;13.158;2022-09-09T05:56:29;94519.30;;;17.08;52.86
49915;BME280;35806;47.958;13.158;2022-09-09T05:58:56;94519.18;;;17.18;53.02
49915;BME280;35806;47.958;13.158;2022-09-09T06:01:25;94520.00;;;16.97;53.31
49915;BME280;35806;47.958;13.158;2022-09-09T06:03:53;94519.51;;;17.17;53.08
49915;BME280;35806;47.958;13.158;2022-09-09T06:06:22;94514.19;;;16.72;52.99
49915;BME280;35806;47.958;13.158;2022-09-09T06:08:52;94519.45;;;17.21;52.86
49915;BME280;35806;47.958;13.158;2022-09-09T06:11:21;94514.46;;;17.11;52.75
49915;BME280;35806;47.958;13.158;2022-09-09T06:13:49;94508.93;;;17.39;52.91
49915;BME280;35806;47.958;13.158;2022-09-09T06:16:19;94505.57;;;17.49;52.95
49915;BME280;35806;47.958;13.158;2022-09-09T06:18:46;94505.60;;;17.31;53.08
49915;BME280;35806;47.958;13.158;2022-09-09T06:21:16;94509.63;;;17.51;52.66
49915;BME280;35806;47.958;13.158;2022-09-09T06:23:44;94515.08;;;16.72;52.05
49915;BME280;35806;47.958;13.158;2022-09-09T06:26:12;94517.90;;;17.13;51.89
49915;BME280;35806;47.958;13.158;2022-09-09T06:28:40;94522.59;;;17.38;52.49
49915;BME280;35806;47.958;13.158;2022-09-09T06:31:09;94520.57;;;17.35;53.27
49915;BME280;35806;47.958;13.158;2022-09-09T06:33:38;94517.19;;;17.62;53.22
49915;BME280;35806;47.958;13.158;2022-09-09T06:36:07;94512.76;;;17.20;53.12
49915;BME280;35806;47.958;13.158;2022-09-09T06:38:37;94514.09;;;17.26;52.46
49915;BME280;35806;47.958;13.158;2022-09-09T06:41:05;94517.28;;;17.17;52.55
49915;BME280;35806;47.958;13.158;2022-09-09T06:43:32;94519.02;;;17.34;52.88
49915;BME280;35806;47.958;13.158;2022-09-09T06:46:02;94515.64;;;17.68;52.47
49915;BME280;35806;47.958;13.158;2022-09-09T06:48:30;94517.53;;;17.70;52.87
49915;BME280;35806;47.958;13.158;2022-09-09T06:51:03;94513.58;;;17.11;53.57
49915;BME280;35806;47.958;13.158;2022-09-09T06:53:31;94510.01;;;16.90;53.41
49915;BME280;35806;47.958;13.158;2022-09-09T06:55:58;94512.10;;;17.35;52.99
49915;BME280;35806;47.958;13.158;2022-09-09T06:58:26;94519.22;;;16.96;51.86
49915;BME280;35806;47.958;13.158;2022-09-09T07:01:03;94523.50;;;17.48;51.90
49915;BME280;35806;47.958;13.158;2022-09-09T07:03:30;94529.74;;;17.78;51.37
49915;BME280;35806;47.958;13.158;2022-09-09T07:05:58;94530.98;;;15.99;53.03
49915;BME280;35806;47.958;13.158;2022-09-09T07:08:25;94531.56;;;15.97;53.24
49915;BME280;35806;47.958;13.158;2022-09-09T07:10:53;94528.71;;;14.94;54.77
49915;BME280;35806;47.958;13.158;2022-09-09T07:13:24;94527.04;;;15.36;54.03
49915;BME280;35806;47.958;13.158;2022-09-09T07:15:51;94529.69;;;16.54;53.62
49915;BME280;35806;47.958;13.158;2022-09-09T07:18:19;94533.38;;;17.13;52.15
49915;BME280;35806;47.958;13.158;2022-09-09T07:20:53;94539.61;;;17.41;51.74
49915;BME280;35806;47.958;13.158;2022-09-09T07:23:21;94543.26;;;17.46;52.61
49915;BME280;35806;47.958;13.158;2022-09-09T07:25:49;94548.26;;;17.22;51.51
49915;BME280;35806;47.958;13.158;2022-09-09T07:28:16;94552.02;;;15.63;53.19
49915;BME280;35806;47.958;13.158;2022-09-09T07:30:58;94557.90;;;14.94;54.51
49915;BME280;35806;47.958;13.158;2022-09-09T07:33:27;94556.53;;;14.41;56.29
49915;BME280;35806;47.958;13.158;2022-09-09T07:35:54;94556.98;;;14.96;55.09
49915;BME280;35806;47.958;13.158;2022-09-09T07:38:28;94552.34;;;15.21;53.75
49915;BME280;35806;47.958;13.158;2022-09-09T07:41:04;94553.85;;;15.89;52.31
49915;BME280;35806;47.958;13.158;2022-09-09T07:43:31;94552.28;;;16.21;51.54
49915;BME280;35806;47.958;13.158;2022-09-09T07:46:00;94557.10;;;17.17;50.64
49915;BME280;35806;47.958;13.158;2022-09-09T07:48:27;94555.51;;;17.48;51.13
49915;BME280;35806;47.958;13.158;2022-09-09T07:51:05;94559.55;;;17.49;49.94
49915;BME280;35806;47.958;13.158;2022-09-09T07:53:33;94562.52;;;17.42;49.81
49915;BME280;35806;47.958;13.158;2022-09-09T07:56:08;94562.74;;;17.77;50.91
49915;BME280;35806;47.958;13.158;2022-09-09T07:58:36;94567.01;;;18.03;51.10
49915;BME280;35806;47.958;13.158;2022-09-09T08:01:09;94571.29;;;17.61;50.80
49915;BME280;35806;47.958;13.158;2022-09-09T08:03:37;94571.47;;;17.55;51.01
49915;BME280;35806;47.958;13.158;2022-09-09T08:06:07;94578.33;;;18.05;50.28
49915;BME280;35806;47.958;13.158;2022-09-09T08:08:35;94581.10;;;17.00;51.61
49915;BME280;35806;47.958;13.158;2022-09-09T08:11:06;94578.35;;;17.52;49.82
49915;BME280;35806;47.958;13.158;2022-09-09T08:13:34;94577.88;;;17.52;49.98
49915;BME280;35806;47.958;13.158;2022-09-09T08:16:07;94574.02;;;17.52;50.97
49915;BME280;35806;47.958;13.158;2022-09-09T08:18:40;94576.70;;;17.42;50.08
49915;BME280;35806;47.958;13.158;2022-09-09T08:21:09;94579.15;;;17.35;50.59
49915;BME280;35806;47.958;13.158;2022-09-09T08:23:37;94584.75;;;17.55;51.29
49915;BME280;35806;47.958;13.158;2022-09-09T08:26:05;94587.93;;;17.40;51.75
49915;BME280;35806;47.958;13.158;2022-09-09T08:28:33;94590.72;;;17.50;52.82
49915;BME280;35806;47.958;13.158;2022-09-09T08:31:10;94600.54;;;18.11;52.06
49915;BME280;35806;47.958;13.158;2022-09-09T08:33:39;94603.42;;;17.57;53.58
49915;BME280;35806;47.958;13.158;2022-09-09T08:36:08;94604.30;;;17.47;53.48
49915;BME280;35806;47.958;13.158;2022-09-09T08:38:35;94604.22;;;17.46;54.10
49915;BME280;35806;47.958;13.158;2022-09-09T08:41:14;94602.98;;;17.13;54.11
49915;BME280;35806;47.958;13.158;2022-09-09T08:43:46;94608.42;;;17.64;54.39
49915;BME280;35806;47.958;13.158;2022-09-09T08:46:22;94608.57;;;17.83;54.69
49915;BME280;35806;47.958;13.158;2022-09-09T08:48:58;94605.99;;;17.88;55.24
49915;BME280;35806;47.958;13.158;2022-09-09T08:51:30;94607.71;;;17.61;55.07
49915;BME280;35806;47.958;13.158;2022-09-09T08:54:05;94606.83;;;17.81;54.96
49915;BME280;35806;47.958;13.158;2022-09-09T08:56:32;94606.79;;;17.97;54.75
49915;BME280;35806;47.958;13.158;2022-09-09T08:59:07;94602.07;;;18.02;54.46
49915;BME280;35806;47.958;13.158;2022-09-09T09:01:50;94605.29;;;17.84;55.09
49915;BME280;35806;47.958;13.158;2022-09-09T09:04:36;94607.26;;;18.07;54.74
49915;BME280;35806;47.958;13.158;2022-09-09T09:07:12;94607.20;;;18.23;54.47
49915;BME280;35806;47.958;13.158;2022-09-09T09:09:47;94608.84;;;18.35;54.43
49915;BME280;35806;47.958;13.158;2022-09-09T09:12:21;94606.96;;;18.17;53.98
49915;BME280;35806;47.958;13.158;2022-09-09T09:14:50;94603.29;;;17.89;54.37
49915;BME280;35806;47.958;13.158;2022-09-09T09:17:18;94603.13;;;18.11;54.21
49915;BME280;35806;47.958;13.158;2022-09-09T09:19:48;94603.34;;;18.13;54.28
49915;BME280;35806;47.958;13.158;2022-09-09T09:22:18;94604.10;;;18.10;54.40
49915;BME280;35806;47.958;13.158;2022-09-09T09:24:52;94607.56;;;18.28;54.37
49915;BME280;35806;47.958;13.158;2022-09-09T09:27:33;94603.97;;;18.11;53.57
49915;BME280;35806;47.958;13.158;2022-09-09T09:30:16;94604.53;;;18.02;53.66
49915;BME280;35806;47.958;13.158;2022-09-09T09:32:50;94602.48;;;17.96;53.61
49915;BME280;35806;47.958;13.158;2022-09-09T09:35:19;94604.33;;;18.12;54.65
49915;BME280;35806;47.958;13.158;2022-09-09T09:37:47;94606.66;;;18.55;53.81
49915;BME280;35806;47.958;13.158;2022-09-09T09:40:21;94608.75;;;18.56;53.77
49915;BME280;35806;47.958;13.158;2022-09-09T09:42:51;94606.98;;;17.66;54.33
49915;BME280;35806;47.958;13.158;2022-09-09T09:45:28;94610.47;;;17.84;54.16
49915;BME280;35806;47.958;13.158;2022-09-09T09:48:00;94617.19;;;17.95;54.47
49915;BME280;35806;47.958;13.158;2022-09-09T09:50:28;94617.89;;;18.12;54.61
49915;BME280;35806;47.958;13.158;2022-09-09T09:52:57;94620.65;;;18.13;54.40
49915;BME280;35806;47.958;13.158;2022-09-09T09:55:25;94621.65;;;18.19;54.70
49915;BME280;35806;47.958;13.158;2022-09-09T09:57:52;94622.88;;;17.29;54.24
49915;BME280;35806;47.958;13.158;2022-09-09T10:00:22;94622.37;;;17.65;54.34
49915;BME280;35806;47.958;13.158;2022-09-09T10:02:50;94619.85;;;18.15;54.00
49915;BME280;35806;47.958;13.158;2022-09-09T10:05:19;94621.88;;;17.89;53.84
49915;BME280;35806;47.958;13.158;2022-09-09T10:07:47;94619.95;;;17.82;53.64
49915;BME280;35806;47.958;13.158;2022-09-09T10:10:35;94617.46;;;18.17;54.09
49915;BME280;35806;47.958;13.158;2022-09-09T10:13:11;94622.78;;;18.33;54.55
49915;BME280;35806;47.958;13.158;2022-09-09T10:15:48;94624.45;;;18.46;55.26
49915;BME280;35806;47.958;13.158;2022-09-09T10:18:30;94629.83;;;18.18;53.91
49915;BME280;35806;47.958;13.158;2022-09-09T10:21:08;94629.36;;;18.24;53.25
49915;BME280;35806;47.958;13.158;2022-09-09T10:23:55;94623.57;;;18.15;54.19
49915;BME280;35806;47.958;13.158;2022-09-09T10:26:35;94628.04;;;18.59;53.30
49915;BME280;35806;47.958;13.158;2022-09-09T10:29:25;94629.56;;;19.04;53.20
49915;BME280;35806;47.958;13.158;2022-09-09T10:32:06;94619.98;;;18.82;53.41
49915;BME280;35806;47.958;13.158;2022-09-09T10:34:51;94612.87;;;18.79;54.30
49915;BME280;35806;47.958;13.158;2022-09-09T10:37:35;94608.47;;;18.53;54.49
49915;BME280;35806;47.958;13.158;2022-09-09T10:40:19;94608.07;;;18.76;54.86
49915;BME280;35806;47.958;13.158;2022-09-09T10:42:49;94606.00;;;18.37;54.76
49915;BME280;35806;47.958;13.158;2022-09-09T10:45:20;94603.90;;;18.64;55.63
49915;BME280;35806;47.958;13.158;2022-09-09T10:48:06;94615.47;;;19.23;53.60
49915;BME280;35806;47.958;13.158;2022-09-09T10:50:49;94626.86;;;18.10;54.48
49915;BME280;35806;47.958;13.158;2022-09-09T10:53:27;94627.20;;;19.55;53.77
49915;BME280;35806;47.958;13.158;2022-09-09T10:56:01;94629.05;;;19.26;52.13
49915;BME280;35806;47.958;13.158;2022-09-09T10:58:35;94633.56;;;19.17;53.24
49915;BME280;35806;47.958;13.158;2022-09-09T11:01:09;94641.31;;;19.14;54.17
49915;BME280;35806;47.958;13.158;2022-09-09T11:03:40;94643.83;;;19.50;52.02
49915;BME280;35806;47.958;13.158;2022-09-09T11:06:13;94639.14;;;19.40;51.97
49915;BME280;35806;47.958;13.158;2022-09-09T11:08:42;94633.68;;;19.20;52.68
49915;BME280;35806;47.958;13.158;2022-09-09T11:11:13;94631.21;;;15.94;57.49
49915;BME280;35806;47.958;13.158;2022-09-09T11:13:47;94625.26;;;15.99;57.17
49915;BME280;35806;47.958;13.158;2022-09-09T11:16:24;94627.06;;;16.26;56.51
49915;BME280;35806;47.958;13.158;2022-09-09T11:18:55;94631.64;;;14.56;59.74
49915;BME280;35806;47.958;13.158;2022-09-09T11:21:29;94634.45;;;15.10;60.54
49915;BME280;35806;47.958;13.158;2022-09-09T11:24:01;94637.25;;;13.61;66.73
49915;BME280;35806;47.958;13.158;2022-09-09T11:26:33;94636.76;;;14.24;66.90
49915;BME280;35806;47.958;13.158;2022-09-09T11:29:17;94635.35;;;14.11;65.96
49915;BME280;35806;47.958;13.158;2022-09-09T11:32:01;94638.94;;;15.57;62.50
49915;BME280;35806;47.958;13.158;2022-09-09T11:34:44;94644.49;;;15.10;62.63
49915;BME280;35806;47.958;13.158;2022-09-09T11:37:35;94651.21;;;15.03;62.84
49915;BME280;35806;47.958;13.158;2022-09-09T11:40:15;94656.22;;;14.70;63.30
49915;BME280;35806;47.958;13.158;2022-09-09T11:42:43;94653.69;;;16.27;59.78
49915;BME280;35806;47.958;13.158;2022-09-09T11:45:21;94647.78;;;17.44;59.04
49915;BME280;35806;47.958;13.158;2022-09-09T11:47:53;94640.65;;;16.93;57.97
49915;BME280;35806;47.958;13.158;2022-09-09T11:50:30;94634.98;;;16.18;60.45
49915;BME280;35806;47.958;13.158;2022-09-09T11:53:31;94637.43;;;15.44;60.53
49915;BME280;35806;47.958;13.158;2022-09-09T11:56:03;94635.17;;;17.23;59.02
49915;BME280;35806;47.958;13.158;2022-09-09T11:58:37;94633.94;;;16.77;58.43
49915;BME280;35806;47.958;13.158;2022-09-09T12:01:16;94633.13;;;16.69;59.18
49915;BME280;35806;47.958;13.158;2022-09-09T12:04:01;94638.49;;;15.30;60.88
49915;BME280;35806;47.958;13.158;2022-09-09T12:06:33;94644.90;;;15.85;60.56
49915;BME280;35806;47.958;13.158;2022-09-09T12:09:18;94650.37;;;16.72;59.78
49915;BME280;35806;47.958;13.158;2022-09-09T12:11:47;94655.38;;;17.16;59.03
49915;BME280;35806;47.958;13.158;2022-09-09T12:14:23;94650.91;;;16.44;58.97
49915;BME280;35806;47.958;13.158;2022-09-09T12:17:10;94646.59;;;17.84;57.19
49915;BME280;35806;47.958;13.158;2022-09-09T12:19:44;94648.53;;;17.71;58.10
49915;BME280;35806;47.958;13.158;2022-09-09T12:22:18;94651.20;;;18.19;57.13
49915;BME280;35806;47.958;13.158;2022-09-09T12:24:54;94656.20;;;18.87;55.89
49915;BME280;35806;47.958;13.158;2022-09-09T12:27:29;94656.05;;;17.92;56.46
49915;BME280;35806;47.958;13.158;2022-09-09T12:30:07;94657.70;;;18.22;56.64
49915;BME280;35806;47.958;13.158;2022-09-09T12:32:36;94661.62;;;18.25;56.55
49915;BME280;35806;47.958;13.158;2022-09-09T12:35:10;94662.56;;;17.93;57.57
49915;BME280;35806;47.958;13.158;2022-09-09T12:37:41;94664.24;;;18.33;57.19
49915;BME280;35806;47.958;13.158;2022-09-09T12:40:20;94661.33;;;18.39;56.53
49915;BME280;35806;47.958;13.158;2022-09-09T12:42:48;94657.55;;;18.27;56.83
49915;BME280;35806;47.958;13.158;2022-09-09T12:45:18;94658.70;;;17.72;56.96
49915;BME280;35806;47.958;13.158;2022-09-09T12:47:47;94659.24;;;18.07;57.12
49915;BME280;35806;47.958;13.158;2022-09-09T12:50:22;94653.97;;;17.69;57.24
49915;BME280;35806;47.958;13.158;2022-09-09T12:52:53;94649.17;;;17.95;57.14
49915;BME280;35806;47.958;13.158;2022-09-09T12:55:25;94644.36;;;18.11;57.34
49915;BME280;35806;47.958;13.158;2022-09-09T12:57:54;94642.97;;;17.24;57.61
49915;BME280;35806;47.958;13.158;2022-09-09T13:00:23;94642.25;;;17.71;57.05
49915;BME280;35806;47.958;13.158;2022-09-09T13:02:53;94639.51;;;17.65;57.64
49915;BME280;35806;47.958;13.158;2022-09-09T13:05:23;94638.03;;;17.78;58.22
49915;BME280;35806;47.958;13.158;2022-09-09T13:07:50;94641.07;;;17.72;58.96
49915;BME280;35806;47.958;13.158;2022-09-09T13:10:24;94644.93;;;17.97;58.47
49915;BME280;35806;47.958;13.158;2022-09-09T13:12:53;94653.13;;;17.80;58.86
49915;BME280;35806;47.958;13.158;2022-09-09T13:15:23;94655.60;;;18.05;58.45
49915;BME280;35806;47.958;13.158;2022-09-09T13:17:53;94657.60;;;17.16;59.86
49915;BME280;35806;47.958;13.158;2022-09-09T13:20:22;94652.46;;;17.61;59.08
49915;BME280;35806;47.958;13.158;2022-09-09T13:22:53;94651.32;;;17.83;59.57
49915;BME280;35806;47.958;13.158;2022-09-09T13:25:24;94646.68;;;17.19;59.71
49915;BME280;35806;47.958;13.158;2022-09-09T13:27:56;94643.00;;;17.35;59.53
49915;BME280;35806;47.958;13.158;2022-09-09T13:30:27;94640.90;;;17.44;59.59